createdAt,value
2023-03-26T00:01:54.216Z,100.00
2023-03-26T00:04:22.085Z,100.00
2023-03-26T00:06:50.365Z,100.00
2023-03-26T00:09:18.614Z,100.00
2023-03-26T00:11:46.829Z,100.00
2023-03-26T00:14:17.617Z,100.00
2023-03-26T00:16:45.625Z,100.00
2023-03-26T00:19:13.981Z,100.00
2023-03-26T00:21:41.667Z,100.00
2023-03-26T00:24:15.009Z,100.00
2023-03-26T00:26:44.626Z,100.00
2023-03-26T00:29:13.924Z,100.00
2023-03-26T00:31:46.161Z,100.00
2023-03-26T00:34:15.967Z,100.00
2023-03-26T00:36:44.022Z,100.00
2023-03-26T00:39:11.531Z,100.00
2023-03-26T00:41:43.161Z,100.00
2023-03-26T00:44:11.493Z,100.00
2023-03-26T00:46:39.619Z,100.00
2023-03-26T00:49:11.087Z,100.00
2023-03-26T00:51:39.469Z,100.00
2023-03-26T00:54:09.700Z,100.00
2023-03-26T00:56:38.719Z,100.00
2023-03-26T00:59:09.307Z,100.00
2023-03-26T01:01:37.772Z,100.00
2023-03-26T01:04:31.647Z,100.00
2023-03-26T01:07:04.166Z,100.00
2023-03-26T01:09:36.498Z,100.00
2023-03-26T01:12:06.927Z,100.00
2023-03-26T01:14:35.294Z,100.00
2023-03-26T01:17:06.992Z,100.00
2023-03-26T01:19:50.055Z,100.00
2023-03-26T01:22:21.900Z,100.00
2023-03-26T01:24:54.234Z,100.00
2023-03-26T01:27:50.326Z,100.00
2023-03-26T01:30:29.952Z,100.00
2023-03-26T01:33:21.471Z,100.00
2023-03-26T01:36:48.236Z,100.00
2023-03-26T01:39:52.900Z,100.00
2023-03-26T01:43:02.408Z,100.00
2023-03-26T01:45:36.508Z,100.00
2023-03-26T01:48:06.260Z,100.00
2023-03-26T01:50:34.097Z,100.00
2023-03-26T01:53:01.869Z,100.00
2023-03-26T01:55:57.388Z,100.00
2023-03-26T01:58:37.011Z,100.00
2023-03-26T02:01:13.443Z,100.00
2023-03-26T02:03:50.687Z,100.00
2023-03-26T02:06:37.440Z,99.27
2023-03-26T02:09:13.504Z,98.64
2023-03-26T02:11:41.702Z,97.89
2023-03-26T02:14:09.880Z,97.90
2023-03-26T02:16:37.456Z,97.84
2023-03-26T02:19:05.326Z,98.07
2023-03-26T02:21:34.167Z,97.89
2023-03-26T02:24:05.081Z,97.31
2023-03-26T02:26:35.619Z,97.22
2023-03-26T02:29:04.733Z,97.00
2023-03-26T02:31:32.877Z,96.78
2023-03-26T02:34:00.909Z,96.52
2023-03-26T02:36:29.355Z,96.28
2023-03-26T02:39:00.915Z,96.18
2023-03-26T02:41:29.527Z,96.23
2023-03-26T02:43:57.346Z,96.35
2023-03-26T02:46:25.901Z,96.21
2023-03-26T02:48:54.701Z,95.79
2023-03-26T02:51:22.870Z,95.82
2023-03-26T02:53:51.505Z,95.90
2023-03-26T02:56:20.513Z,96.13
2023-03-26T02:58:48.913Z,96.37
2023-03-26T03:01:18.479Z,96.51
2023-03-26T03:03:47.523Z,96.85
2023-03-26T03:06:18.782Z,97.74
2023-03-26T03:08:46.710Z,97.89
2023-03-26T03:11:17.734Z,98.56
2023-03-26T03:13:46.304Z,98.87
2023-03-26T03:16:16.366Z,99.25
2023-03-26T03:18:44.391Z,99.63
2023-03-26T03:21:12.054Z,99.68
2023-03-26T03:23:39.920Z,100.00
2023-03-26T03:26:15.654Z,100.00
2023-03-26T03:28:45.285Z,100.00
2023-03-26T03:31:13.989Z,100.00
2023-03-26T03:33:43.011Z,100.00
2023-03-26T03:36:20.393Z,100.00
2023-03-26T03:38:49.722Z,100.00
2023-03-26T03:41:18.633Z,100.00
2023-03-26T03:43:46.946Z,100.00
2023-03-26T03:46:14.883Z,100.00
2023-03-26T03:48:48.236Z,100.00
2023-03-26T03:51:18.432Z,100.00
2023-03-26T03:53:47.598Z,100.00
2023-03-26T03:56:19.164Z,100.00
2023-03-26T03:58:48.944Z,100.00
2023-03-26T04:01:17.251Z,100.00
2023-03-26T04:03:46.509Z,100.00
2023-03-26T04:06:18.795Z,100.00
2023-03-26T04:08:47.471Z,100.00
2023-03-26T04:11:15.500Z,100.00
2023-03-26T04:13:46.591Z,100.00
2023-03-26T04:16:15.368Z,100.00
2023-03-26T04:18:45.232Z,100.00
2023-03-26T04:21:16.020Z,100.00
2023-03-26T04:23:44.224Z,100.00
2023-03-26T04:26:18.757Z,100.00
2023-03-26T04:29:00.045Z,100.00
2023-03-26T04:31:30.451Z,100.00
2023-03-26T04:34:07.977Z,100.00
2023-03-26T04:36:42.405Z,100.00
2023-03-26T04:39:13.208Z,100.00
2023-03-26T04:41:45.103Z,100.00
2023-03-26T04:44:17.042Z,100.00
2023-03-26T04:46:45.848Z,100.00
2023-03-26T04:49:13.966Z,100.00
2023-03-26T04:51:42.112Z,100.00
2023-03-26T04:54:13.712Z,100.00
2023-03-26T04:56:56.839Z,100.00
2023-03-26T04:59:33.231Z,100.00
2023-03-26T05:02:06.166Z,100.00
2023-03-26T05:04:36.842Z,100.00
2023-03-26T05:07:04.884Z,100.00
2023-03-26T05:09:33.535Z,100.00
2023-03-26T05:12:03.538Z,100.00
2023-03-26T05:14:36.191Z,100.00
2023-03-26T05:17:10.975Z,100.00
2023-03-26T05:19:40.698Z,100.00
2023-03-26T05:22:08.170Z,100.00
2023-03-26T05:24:36.346Z,100.00
2023-03-26T05:27:05.527Z,100.00
2023-03-26T05:29:33.274Z,100.00
2023-03-26T05:32:00.978Z,100.00
2023-03-26T05:34:29.109Z,100.00
2023-03-26T05:36:56.928Z,100.00
2023-03-26T05:39:26.853Z,100.00
2023-03-26T05:41:56.280Z,100.00
2023-03-26T05:44:25.446Z,100.00
2023-03-26T05:46:53.223Z,100.00
2023-03-26T05:49:21.286Z,100.00
2023-03-26T05:51:48.814Z,100.00
2023-03-26T05:54:16.923Z,100.00
2023-03-26T05:57:01.198Z,100.00
2023-03-26T05:59:34.416Z,100.00
2023-03-26T06:02:11.162Z,100.00
2023-03-26T06:04:41.201Z,100.00
2023-03-26T06:07:12.032Z,100.00
2023-03-26T06:09:40.979Z,100.00
2023-03-26T06:12:10.969Z,100.00
2023-03-26T06:14:39.374Z,99.71
2023-03-26T06:17:07.711Z,99.47
2023-03-26T06:19:35.762Z,97.69
2023-03-26T06:22:04.531Z,97.28
2023-03-26T06:24:33.634Z,96.36
2023-03-26T06:27:01.562Z,95.98
2023-03-26T06:29:31.117Z,94.82
2023-03-26T06:32:09.065Z,94.98
2023-03-26T06:34:41.759Z,93.17
2023-03-26T06:37:09.593Z,93.07
2023-03-26T06:39:37.304Z,91.31
2023-03-26T06:42:06.107Z,92.12
2023-03-26T06:44:35.963Z,90.88
2023-03-26T06:47:04.730Z,90.50
2023-03-26T06:49:34.403Z,89.01
2023-03-26T06:52:04.336Z,88.95
2023-03-26T06:54:35.257Z,86.89
2023-03-26T06:57:03.421Z,85.66
2023-03-26T06:59:31.157Z,84.64
2023-03-26T07:02:03.824Z,84.84
2023-03-26T07:04:39.394Z,84.77
2023-03-26T07:07:20.576Z,83.20
2023-03-26T07:09:54.191Z,80.23
2023-03-26T07:12:23.734Z,80.94
2023-03-26T07:14:52.159Z,80.33
2023-03-26T07:17:22.226Z,80.02
2023-03-26T07:19:52.710Z,77.82
2023-03-26T07:22:24.595Z,77.22
2023-03-26T07:24:55.255Z,76.37
2023-03-26T07:27:59.054Z,76.34
2023-03-26T07:30:38.895Z,75.25
2023-03-26T07:33:35.707Z,75.09
2023-03-26T07:36:10.790Z,73.79
2023-03-26T07:39:09.058Z,72.12
2023-03-26T07:41:51.392Z,71.67
2023-03-26T07:44:39.866Z,69.54
2023-03-26T07:47:32.867Z,67.52
2023-03-26T07:50:03.040Z,68.91
2023-03-26T07:52:31.547Z,68.63
2023-03-26T07:54:59.816Z,66.29
2023-03-26T07:57:44.385Z,66.37
2023-03-26T08:00:16.126Z,65.58
2023-03-26T08:03:10.532Z,65.10
2023-03-26T08:06:17.583Z,65.81
2023-03-26T08:09:00.337Z,65.54
2023-03-26T08:12:05.824Z,63.92
2023-03-26T08:14:47.302Z,61.75
2023-03-26T08:17:30.645Z,61.98
2023-03-26T08:20:11.015Z,63.30
2023-03-26T08:22:50.764Z,62.15
2023-03-26T08:25:28.218Z,60.38
2023-03-26T08:28:24.459Z,60.28
2023-03-26T08:30:55.216Z,57.69
2023-03-26T08:33:27.120Z,57.18
2023-03-26T08:35:54.647Z,57.25
2023-03-26T08:38:22.857Z,56.09
2023-03-26T08:41:05.773Z,53.91
2023-03-26T08:43:48.837Z,54.27
2023-03-26T08:46:39.036Z,53.16
2023-03-26T08:49:17.069Z,51.41
2023-03-26T08:52:19.010Z,51.44
2023-03-26T08:54:57.297Z,51.37
2023-03-26T08:57:49.102Z,50.33
2023-03-26T09:00:22.966Z,50.73
2023-03-26T09:03:11.918Z,47.32
2023-03-26T09:06:05.853Z,47.17
2023-03-26T09:08:39.254Z,46.31
2023-03-26T09:11:59.107Z,46.35
2023-03-26T09:14:41.790Z,46.90
2023-03-26T09:17:46.864Z,45.16
2023-03-26T09:20:38.307Z,46.60
2023-03-26T09:23:27.767Z,47.28
2023-03-26T09:26:51.463Z,46.84
2023-03-26T09:29:34.029Z,46.80
2023-03-26T09:32:20.425Z,49.16
2023-03-26T09:35:18.724Z,47.17
2023-03-26T09:38:01.036Z,47.65
2023-03-26T09:40:38.695Z,49.46
2023-03-26T09:43:24.958Z,47.74
2023-03-26T09:45:58.570Z,48.73
2023-03-26T09:48:45.661Z,47.29
2023-03-26T09:51:38.401Z,46.76
2023-03-26T09:54:44.700Z,46.17
2023-03-26T09:57:31.772Z,45.97
2023-03-26T10:00:20.909Z,47.14
2023-03-26T10:03:10.669Z,45.68
2023-03-26T10:06:22.830Z,44.95
2023-03-26T10:08:56.910Z,42.86
2023-03-26T10:11:37.485Z,43.54
2023-03-26T10:14:24.024Z,42.17
2023-03-26T10:17:05.462Z,43.24
2023-03-26T10:20:09.453Z,41.40
2023-03-26T10:23:00.660Z,42.70
2023-03-26T10:26:00.523Z,42.90
2023-03-26T10:28:52.651Z,42.51
2023-03-26T10:31:26.318Z,41.30
2023-03-26T10:34:28.956Z,42.26
2023-03-26T10:37:20.408Z,42.69
2023-03-26T10:39:54.914Z,41.28
2023-03-26T10:42:48.822Z,41.34
2023-03-26T10:45:22.457Z,40.35
2023-03-26T10:48:24.483Z,40.01
2023-03-26T10:51:00.675Z,40.05
2023-03-26T10:53:47.162Z,40.72
2023-03-26T10:56:44.169Z,39.79
2023-03-26T10:59:14.072Z,37.64
2023-03-26T11:02:03.221Z,37.34
2023-03-26T11:04:54.826Z,35.94
2023-03-26T11:07:35.554Z,35.64
2023-03-26T11:10:21.443Z,35.79
2023-03-26T11:13:11.143Z,33.49
2023-03-26T11:16:00.721Z,33.51
2023-03-26T11:18:38.536Z,32.63
2023-03-26T11:21:23.134Z,32.54
2023-03-26T11:24:17.556Z,33.06
2023-03-26T11:26:52.942Z,31.85
2023-03-26T11:29:55.663Z,32.03
2023-03-26T11:32:29.067Z,32.43
2023-03-26T11:35:40.352Z,31.70
2023-03-26T11:38:41.977Z,31.74
2023-03-26T11:41:31.166Z,32.44
2023-03-26T11:44:05.458Z,32.17
2023-03-26T11:46:44.061Z,32.83
2023-03-26T11:49:16.766Z,32.13
2023-03-26T11:51:48.836Z,30.91
2023-03-26T11:54:17.890Z,30.86
2023-03-26T11:57:05.354Z,31.37
2023-03-26T11:59:55.741Z,30.72
2023-03-26T12:02:26.294Z,30.76
2023-03-26T12:05:29.493Z,31.18
2023-03-26T12:07:59.398Z,29.87
2023-03-26T12:10:37.844Z,29.34
2023-03-26T12:13:33.618Z,29.72
2023-03-26T12:16:09.010Z,29.88
2023-03-26T12:18:38.322Z,28.90
2023-03-26T12:21:10.232Z,28.34
2023-03-26T12:23:43.905Z,28.84
2023-03-26T12:26:17.187Z,28.84
2023-03-26T12:28:50.075Z,29.48
2023-03-26T12:31:19.415Z,28.55
2023-03-26T12:34:16.854Z,29.20
2023-03-26T12:36:56.041Z,28.34
2023-03-26T12:40:08.793Z,28.24
2023-03-26T12:44:44.458Z,27.49
2023-03-26T12:45:37.943Z,28.63
2023-03-26T12:48:06.667Z,27.63
2023-03-26T12:50:40.676Z,28.46
2023-03-26T12:53:14.962Z,28.18
2023-03-26T12:56:00.628Z,28.42
2023-03-26T12:59:02.355Z,27.47
2023-03-26T13:01:40.993Z,28.50
2023-03-26T13:04:28.780Z,27.37
2023-03-26T13:07:09.670Z,27.97
2023-03-26T13:09:43.549Z,28.52
2023-03-26T13:12:11.205Z,30.40
2023-03-26T13:15:06.825Z,27.84
2023-03-26T13:17:51.983Z,27.66
2023-03-26T13:20:35.414Z,28.59
2023-03-26T13:23:23.945Z,29.05
2023-03-26T13:26:04.185Z,29.54
2023-03-26T13:28:42.066Z,29.29
2023-03-26T13:31:26.551Z,29.80
2023-03-26T13:34:12.676Z,29.54
2023-03-26T13:37:12.989Z,29.35
2023-03-26T13:39:51.300Z,28.91
2023-03-26T13:42:22.020Z,28.59
2023-03-26T13:45:04.646Z,27.98
2023-03-26T13:47:38.463Z,28.63
2023-03-26T13:50:21.826Z,28.06
2023-03-26T13:52:55.955Z,27.95
2023-03-26T13:55:43.718Z,26.97
2023-03-26T13:58:45.228Z,27.55
2023-03-26T14:01:19.469Z,28.95
2023-03-26T14:04:19.784Z,29.45
2023-03-26T14:07:05.545Z,29.30
2023-03-26T14:09:44.330Z,30.74
2023-03-26T14:12:27.128Z,31.46
2023-03-26T14:15:10.467Z,30.99
2023-03-26T14:17:56.316Z,30.79
2023-03-26T14:20:47.602Z,32.90
2023-03-26T14:23:53.029Z,32.46
2023-03-26T14:26:40.408Z,31.46
2023-03-26T14:29:57.009Z,31.51
2023-03-26T14:32:36.787Z,32.05
2023-03-26T14:35:20.111Z,31.64
2023-03-26T14:38:02.864Z,32.48
2023-03-26T14:40:30.691Z,32.06
2023-03-26T14:43:21.674Z,32.56
2023-03-26T14:46:07.557Z,31.80
2023-03-26T14:49:03.028Z,31.51
2023-03-26T14:51:55.054Z,31.84
2023-03-26T14:54:31.308Z,31.55
2023-03-26T14:57:31.629Z,32.15
2023-03-26T15:00:06.889Z,31.84
2023-03-26T15:03:07.540Z,31.91
2023-03-26T15:06:15.357Z,32.14
2023-03-26T15:09:24.610Z,31.71
2023-03-26T15:12:18.536Z,31.80
2023-03-26T15:15:25.045Z,31.36
2023-03-26T15:18:17.272Z,30.92
2023-03-26T15:20:47.662Z,31.03
2023-03-26T15:24:06.159Z,31.18
2023-03-26T15:26:46.533Z,30.88
2023-03-26T15:29:36.926Z,31.33
2023-03-26T15:32:16.199Z,31.74
2023-03-26T15:34:48.670Z,31.68
2023-03-26T15:38:09.085Z,31.10
2023-03-26T15:41:28.525Z,30.72
2023-03-26T15:44:22.500Z,31.14
2023-03-26T15:47:19.914Z,30.87
2023-03-26T15:49:59.945Z,31.42
2023-03-26T15:52:48.552Z,31.85
2023-03-26T15:55:16.191Z,32.14
2023-03-26T15:57:56.983Z,32.45
2023-03-26T16:00:31.944Z,32.41
2023-03-26T16:03:25.605Z,32.51
2023-03-26T16:06:02.289Z,33.07
2023-03-26T16:08:39.208Z,33.30
2023-03-26T16:11:12.596Z,33.70
2023-03-26T16:13:49.087Z,33.91
2023-03-26T16:16:24.939Z,33.99
2023-03-26T16:19:20.846Z,34.20
2023-03-26T16:21:57.659Z,34.55
2023-03-26T16:24:28.919Z,35.03
2023-03-26T16:27:10.640Z,35.38
2023-03-26T16:29:59.803Z,36.31
2023-03-26T16:32:33.458Z,36.41
2023-03-26T16:35:33.619Z,36.76
2023-03-26T16:38:18.408Z,37.52
2023-03-26T16:40:53.633Z,37.98
2023-03-26T16:44:10.705Z,38.54
2023-03-26T16:46:54.699Z,38.93
2023-03-26T16:50:08.496Z,39.71
2023-03-26T16:52:43.310Z,39.99
2023-03-26T16:55:32.615Z,40.37
2023-03-26T16:58:12.673Z,40.86
2023-03-26T17:00:48.147Z,41.66
2023-03-26T17:03:17.847Z,42.69
2023-03-26T17:05:56.680Z,43.80
2023-03-26T17:08:37.385Z,44.89
2023-03-26T17:11:42.474Z,45.57
2023-03-26T17:14:33.676Z,46.32
2023-03-26T17:17:19.392Z,47.52
2023-03-26T17:19:51.518Z,47.92
2023-03-26T17:22:31.499Z,48.67
2023-03-26T17:25:25.177Z,49.53
2023-03-26T17:28:15.541Z,50.22
2023-03-26T17:31:11.252Z,50.78
2023-03-26T17:33:39.577Z,51.27
2023-03-26T17:36:21.380Z,51.71
2023-03-26T17:38:49.122Z,52.13
2023-03-26T17:41:49.789Z,52.28
2023-03-26T17:44:37.426Z,52.76
2023-03-26T17:47:16.455Z,52.78
2023-03-26T17:49:45.698Z,53.08
2023-03-26T17:52:25.230Z,53.06
2023-03-26T17:54:55.938Z,53.61
2023-03-26T17:57:32.715Z,53.83
2023-03-26T18:00:01.968Z,53.72
2023-03-26T18:02:49.719Z,53.81
2023-03-26T18:05:18.465Z,53.71
2023-03-26T18:08:08.116Z,53.47
2023-03-26T18:10:42.215Z,53.49
2023-03-26T18:13:28.672Z,53.71
2023-03-26T18:16:06.199Z,53.48
2023-03-26T18:18:57.865Z,53.37
2023-03-26T18:21:50.727Z,53.19
2023-03-26T18:24:29.226Z,52.90
2023-03-26T18:27:03.332Z,52.75
2023-03-26T18:29:35.569Z,52.57
2023-03-26T18:32:09.671Z,52.69
2023-03-26T18:34:45.586Z,52.45
2023-03-26T18:37:19.611Z,51.91
2023-03-26T18:39:59.031Z,51.88
2023-03-26T18:42:30.381Z,51.74
2023-03-26T18:45:03.284Z,51.63
2023-03-26T18:47:33.706Z,51.52
2023-03-26T18:50:02.410Z,51.51
2023-03-26T18:52:32.232Z,51.10
2023-03-26T18:55:03.235Z,50.57
2023-03-26T18:57:31.863Z,50.70
2023-03-26T19:00:18.613Z,50.88
2023-03-26T19:02:51.202Z,51.03
2023-03-26T19:05:20.329Z,51.31
2023-03-26T19:07:48.179Z,51.88
2023-03-26T19:10:21.216Z,52.82
2023-03-26T19:13:01.026Z,53.07
2023-03-26T19:15:32.006Z,53.57
2023-03-26T19:18:14.434Z,53.84
2023-03-26T19:20:47.548Z,54.30
2023-03-26T19:23:21.699Z,54.44
2023-03-26T19:25:54.826Z,54.34
2023-03-26T19:28:25.961Z,54.66
2023-03-26T19:31:06.454Z,54.93
2023-03-26T19:33:37.331Z,55.13
2023-03-26T19:36:14.618Z,55.23
2023-03-26T19:38:49.078Z,55.52
2023-03-26T19:41:26.594Z,55.48
2023-03-26T19:43:58.393Z,56.10
2023-03-26T19:46:28.240Z,56.08
2023-03-26T19:48:58.055Z,56.48
2023-03-26T19:51:36.088Z,56.74
2023-03-26T19:54:15.878Z,57.08
2023-03-26T19:56:43.889Z,57.25
2023-03-26T19:59:11.986Z,57.60
2023-03-26T20:01:39.866Z,57.54
2023-03-26T20:04:11.474Z,57.57
2023-03-26T20:06:44.089Z,57.62
2023-03-26T20:09:13.297Z,57.83
2023-03-26T20:11:42.282Z,58.07
2023-03-26T20:14:15.994Z,58.48
2023-03-26T20:16:45.458Z,58.27
2023-03-26T20:19:15.247Z,58.79
2023-03-26T20:21:44.439Z,58.77
2023-03-26T20:24:17.743Z,59.04
2023-03-26T20:26:46.385Z,59.03
2023-03-26T20:29:14.968Z,59.00
2023-03-26T20:31:43.219Z,59.07
2023-03-26T20:34:23.596Z,58.97
2023-03-26T20:36:55.395Z,59.48
2023-03-26T20:39:24.837Z,59.33
2023-03-26T20:41:54.337Z,59.82
2023-03-26T20:44:22.598Z,59.36
2023-03-26T20:46:50.781Z,59.50
2023-03-26T20:49:22.121Z,60.18
2023-03-26T20:51:49.744Z,60.38
2023-03-26T20:54:23.310Z,60.59
2023-03-26T20:56:53.534Z,60.95
2023-03-26T20:59:26.253Z,60.96
2023-03-26T21:01:57.339Z,61.72
2023-03-26T21:04:26.656Z,61.50
2023-03-26T21:07:00.363Z,61.90
2023-03-26T21:09:35.484Z,61.95
2023-03-26T21:12:33.420Z,63.03
2023-03-26T21:17:29.572Z,63.72
2023-03-26T21:20:06.366Z,64.10
2023-03-26T21:23:03.999Z,63.67
2023-03-26T21:26:16.095Z,66.22
2023-03-26T21:28:49.925Z,68.76
2023-03-26T21:31:21.426Z,71.32
2023-03-26T21:33:50.319Z,68.47
2023-03-26T21:36:19.910Z,67.11
2023-03-26T21:38:50.520Z,67.17
2023-03-26T21:41:24.384Z,68.27
2023-03-26T21:43:52.308Z,70.12
2023-03-26T21:46:20.663Z,71.58
2023-03-26T21:48:48.411Z,72.50
2023-03-26T21:51:19.330Z,72.79
2023-03-26T21:53:48.885Z,72.17
2023-03-26T21:56:35.002Z,78.33
2023-03-26T21:59:21.685Z,79.72
2023-03-26T22:02:06.612Z,82.21
2023-03-26T22:04:45.082Z,83.56
2023-03-26T22:07:48.457Z,82.45
2023-03-26T22:10:16.641Z,89.03
2023-03-26T22:12:44.523Z,87.84
2023-03-26T22:15:14.958Z,87.05
2023-03-26T22:17:43.121Z,85.44
2023-03-26T22:20:14.869Z,83.97
2023-03-26T22:22:48.632Z,83.73
2023-03-26T22:25:17.800Z,82.82
2023-03-26T22:27:47.116Z,83.35
2023-03-26T22:30:16.583Z,84.68
2023-03-26T22:32:44.721Z,84.73
2023-03-26T22:35:13.060Z,86.03
2023-03-26T22:37:41.607Z,85.68
2023-03-26T22:40:10.428Z,86.24
2023-03-26T22:42:39.187Z,86.94
2023-03-26T22:45:07.660Z,85.51
2023-03-26T22:47:35.600Z,84.67
2023-03-26T22:50:05.906Z,83.57
2023-03-26T22:52:36.537Z,83.71
2023-03-26T22:55:05.347Z,85.19
2023-03-26T22:57:33.465Z,86.59
2023-03-26T23:00:12.916Z,85.56
2023-03-26T23:02:44.962Z,84.59
2023-03-26T23:05:14.874Z,84.61
2023-03-26T23:07:42.661Z,86.11
2023-03-26T23:10:11.296Z,87.51
2023-03-26T23:12:40.375Z,87.68
2023-03-26T23:15:09.910Z,87.97
2023-03-26T23:17:38.352Z,85.57
2023-03-26T23:20:15.045Z,84.69
2023-03-26T23:22:43.800Z,84.96
2023-03-26T23:25:12.236Z,86.08
2023-03-26T23:27:43.154Z,85.67
2023-03-26T23:30:13.403Z,86.20
2023-03-26T23:32:41.830Z,87.15
2023-03-26T23:35:09.868Z,87.68
2023-03-26T23:37:37.878Z,88.79
2023-03-26T23:40:10.624Z,88.69
2023-03-26T23:42:39.319Z,89.07
2023-03-26T23:45:08.525Z,90.19
2023-03-26T23:47:36.288Z,90.34
2023-03-26T23:50:05.810Z,90.22
2023-03-26T23:52:33.453Z,90.98
2023-03-26T23:55:00.885Z,90.07
2023-03-26T23:57:29.198Z,89.61
2023-03-26T23:59:57.900Z,89.90
